createdAt,value
2018-04-29T00:01:38.792Z,9.77
2018-04-29T00:04:07.081Z,10.27
2018-04-29T00:06:35.277Z,10.07
2018-04-29T00:09:03.519Z,10.43
2018-04-29T00:11:31.829Z,9.77
2018-04-29T00:14:00.832Z,10.17
2018-04-29T00:16:29.027Z,9.83
2018-04-29T00:18:58.015Z,10.43
2018-04-29T00:21:26.981Z,9.50
2018-04-29T00:23:55.204Z,10.40
2018-04-29T00:26:23.438Z,10.17
2018-04-29T00:28:51.659Z,10.83
2018-04-29T00:31:19.939Z,10.03
2018-04-29T00:33:48.091Z,10.33
2018-04-29T00:36:17.084Z,10.43
2018-04-29T00:38:46.102Z,10.37
2018-04-29T00:41:15.067Z,11.00
2018-04-29T00:43:44.034Z,10.13
2018-04-29T00:46:12.249Z,10.70
2018-04-29T00:48:40.511Z,10.67
2018-04-29T00:51:09.517Z,10.67
2018-04-29T00:53:37.719Z,11.10
2018-04-29T00:56:05.955Z,10.43
2018-04-29T00:58:34.925Z,11.47
2018-04-29T01:01:03.139Z,10.73
2018-04-29T01:03:31.375Z,10.97
2018-04-29T01:05:59.619Z,10.97
2018-04-29T01:08:27.793Z,10.70
2018-04-29T01:10:56.064Z,10.27
2018-04-29T01:13:24.263Z,10.53
2018-04-29T01:15:52.483Z,11.10
2018-04-29T01:18:20.722Z,10.90
2018-04-29T01:20:49.039Z,10.40
2018-04-29T01:23:17.239Z,10.70
2018-04-29T01:25:45.455Z,10.53
2018-04-29T01:28:13.659Z,10.20
2018-04-29T01:30:41.860Z,10.17
2018-04-29T01:33:10.174Z,9.70
2018-04-29T01:35:38.379Z,10.20
2018-04-29T01:38:07.383Z,10.30
2018-04-29T01:40:35.599Z,9.53
2018-04-29T01:43:03.842Z,9.63
2018-04-29T01:45:32.060Z,9.97
2018-04-29T01:48:00.564Z,9.70
2018-04-29T01:50:30.463Z,9.80
2018-04-29T01:52:58.661Z,9.90
2018-04-29T01:55:27.703Z,10.47
2018-04-29T01:57:55.907Z,10.60
2018-04-29T02:00:24.115Z,10.20
2018-04-29T02:02:53.104Z,10.30
2018-04-29T02:05:23.363Z,10.47
2018-04-29T02:07:52.338Z,9.87
2018-04-29T02:10:20.551Z,9.93
2018-04-29T02:12:48.775Z,10.50
2018-04-29T02:15:16.976Z,9.93
2018-04-29T02:17:45.209Z,10.20
2018-04-29T02:20:14.163Z,9.90
2018-04-29T02:22:42.406Z,10.23
2018-04-29T02:25:10.611Z,9.83
2018-04-29T02:27:38.807Z,10.30
2018-04-29T02:30:07.015Z,11.03
2018-04-29T02:32:35.255Z,10.63
2018-04-29T02:35:03.447Z,9.63
2018-04-29T02:37:31.652Z,9.83
2018-04-29T02:39:59.923Z,9.90
2018-04-29T02:42:28.136Z,9.50
2018-04-29T02:44:56.318Z,9.90
2018-04-29T02:47:24.536Z,9.20
2018-04-29T02:49:53.491Z,9.47
2018-04-29T02:52:21.683Z,9.13
2018-04-29T02:54:50.135Z,9.47
2018-04-29T02:57:18.383Z,9.23
2018-04-29T02:59:46.576Z,9.30
2018-04-29T03:02:16.036Z,9.70
2018-04-29T03:04:45.080Z,10.03
2018-04-29T03:07:13.307Z,9.30
2018-04-29T03:09:42.307Z,10.40
2018-04-29T03:12:11.271Z,9.67
2018-04-29T03:14:39.479Z,8.97
2018-04-29T03:17:07.756Z,9.37
2018-04-29T03:19:36.077Z,9.47
2018-04-29T03:22:04.291Z,9.90
2018-04-29T03:24:33.331Z,9.67
2018-04-29T03:27:01.524Z,9.47
2018-04-29T03:29:30.491Z,9.40
2018-04-29T03:31:58.776Z,9.40
2018-04-29T03:34:27.002Z,10.20
2018-04-29T03:36:56.012Z,9.30
2018-04-29T03:39:24.303Z,10.20
2018-04-29T03:41:53.272Z,9.33
2018-04-29T03:44:22.254Z,9.80
2018-04-29T03:46:50.488Z,9.40
2018-04-29T03:49:18.975Z,9.60
2018-04-29T03:51:47.171Z,9.80
2018-04-29T03:54:15.411Z,10.00
2018-04-29T03:56:43.605Z,9.83
2018-04-29T03:59:23.730Z,9.63
2018-04-29T04:02:03.779Z,10.50
2018-04-29T04:04:34.587Z,10.87
2018-04-29T04:07:03.599Z,10.37
2018-04-29T04:09:31.794Z,10.13
2018-04-29T04:12:00.071Z,10.40
2018-04-29T04:14:28.275Z,9.90
2018-04-29T04:16:56.480Z,10.20
2018-04-29T04:19:25.463Z,10.27
2018-04-29T04:21:54.514Z,10.20
2018-04-29T04:24:22.658Z,9.90
2018-04-29T04:26:53.588Z,10.80
2018-04-29T04:29:22.562Z,9.43
2018-04-29T04:31:50.764Z,10.23
2018-04-29T04:34:18.995Z,10.37
2018-04-29T04:36:47.195Z,10.03
2018-04-29T04:39:16.179Z,9.80
2018-04-29T04:41:44.453Z,9.30
2018-04-29T04:44:12.647Z,10.40
2018-04-29T04:46:41.668Z,10.70
2018-04-29T04:49:11.339Z,10.30
2018-04-29T04:51:41.611Z,10.07
2018-04-29T04:54:09.814Z,10.10
2018-04-29T04:56:38.039Z,10.17
2018-04-29T04:59:06.239Z,10.00
2018-04-29T05:01:34.472Z,11.23
2018-04-29T05:04:03.548Z,10.40
2018-04-29T05:06:31.756Z,10.50
2018-04-29T05:08:59.951Z,10.90
2018-04-29T05:11:29.507Z,9.77
2018-04-29T05:13:58.503Z,10.77
2018-04-29T05:16:27.488Z,10.73
2018-04-29T05:18:55.766Z,10.13
2018-04-29T05:21:23.966Z,10.10
2018-04-29T05:23:52.216Z,9.40
2018-04-29T05:26:20.423Z,10.63
2018-04-29T05:28:48.684Z,10.27
2018-04-29T05:31:16.863Z,10.00
2018-04-29T05:33:45.168Z,10.10
2018-04-29T05:36:13.415Z,10.43
2018-04-29T05:38:41.619Z,9.40
2018-04-29T05:41:09.932Z,9.97
2018-04-29T05:43:38.067Z,9.60
2018-04-29T05:46:06.401Z,10.40
2018-04-29T05:48:34.607Z,10.10
2018-04-29T05:51:02.798Z,9.93
2018-04-29T05:53:31.052Z,10.10
2018-04-29T05:55:59.498Z,9.97
2018-04-29T05:58:27.703Z,9.40
2018-04-29T06:00:55.895Z,9.37
2018-04-29T06:03:24.147Z,8.97
2018-04-29T06:05:53.195Z,8.80
2018-04-29T06:08:21.387Z,8.87
2018-04-29T06:10:50.233Z,8.20
2018-04-29T06:13:19.435Z,8.27
2018-04-29T06:15:47.646Z,7.70
2018-04-29T06:18:16.044Z,7.40
2018-04-29T06:20:44.232Z,8.20
2018-04-29T06:23:13.204Z,8.10
2018-04-29T06:25:41.448Z,7.07
2018-04-29T06:28:09.672Z,7.30
2018-04-29T06:30:38.663Z,6.37
2018-04-29T06:33:07.642Z,6.70
2018-04-29T06:35:35.923Z,5.77
2018-04-29T06:38:04.111Z,6.00
2018-04-29T06:40:33.103Z,6.37
2018-04-29T06:43:02.080Z,5.67
2018-04-29T06:45:30.267Z,5.10
2018-04-29T06:47:59.232Z,4.70
2018-04-29T06:50:27.455Z,5.70
2018-04-29T06:52:55.639Z,5.60
2018-04-29T06:55:23.843Z,4.87
2018-04-29T06:57:52.187Z,4.90
2018-04-29T07:00:20.408Z,5.10
2018-04-29T07:02:48.596Z,4.90
2018-04-29T07:05:16.815Z,5.10
2018-04-29T07:07:45.015Z,4.53
2018-04-29T07:10:13.238Z,4.03
2018-04-29T07:12:42.384Z,3.60
2018-04-29T07:15:10.576Z,3.63
2018-04-29T07:17:38.771Z,3.60
2018-04-29T07:20:07.044Z,3.90
2018-04-29T07:22:35.247Z,4.30
2018-04-29T07:25:03.435Z,3.50
2018-04-29T07:27:31.659Z,3.30
2018-04-29T07:29:59.855Z,2.90
2018-04-29T07:32:28.819Z,2.90
2018-04-29T07:34:58.545Z,2.60
2018-04-29T07:37:26.745Z,2.23
2018-04-29T07:39:55.891Z,2.67
2018-04-29T07:42:24.043Z,2.20
2018-04-29T07:44:52.231Z,2.50
2018-04-29T07:47:21.188Z,2.30
2018-04-29T07:49:51.397Z,2.40
2018-04-29T07:52:20.460Z,2.23
2018-04-29T07:54:48.539Z,2.23
2018-04-29T07:57:16.750Z,1.83
2018-04-29T07:59:44.934Z,1.90
2018-04-29T08:02:13.133Z,1.73
2018-04-29T08:04:41.452Z,1.87
2018-04-29T08:07:09.859Z,1.70
2018-04-29T08:09:38.811Z,1.40
2018-04-29T08:12:07.016Z,1.40
2018-04-29T08:14:36.003Z,1.50
2018-04-29T08:17:04.978Z,1.73
2018-04-29T08:19:33.201Z,1.47
2018-04-29T08:22:01.408Z,2.30
2018-04-29T08:24:30.383Z,1.70
2018-04-29T08:26:58.672Z,1.80
2018-04-29T08:29:26.892Z,1.80
2018-04-29T08:31:55.883Z,1.50
2018-04-29T08:34:24.951Z,2.00
2018-04-29T08:36:53.138Z,1.80
2018-04-29T08:39:21.331Z,1.90
2018-04-29T08:41:50.394Z,2.20
2018-04-29T08:44:18.498Z,2.40
2018-04-29T08:46:47.472Z,2.33
2018-04-29T08:49:15.717Z,2.20
2018-04-29T08:51:43.924Z,2.50
2018-04-29T08:54:12.123Z,2.77
2018-04-29T08:56:41.107Z,3.30
2018-04-29T08:59:10.068Z,3.70
2018-04-29T09:04:12.959Z,3.73
2018-04-29T09:06:41.163Z,3.40
2018-04-29T09:09:09.355Z,3.60
2018-04-29T09:11:38.432Z,3.97
2018-04-29T09:14:06.623Z,3.77
2018-04-29T09:16:36.183Z,3.40
2018-04-29T09:19:04.461Z,3.90
2018-04-29T09:21:32.660Z,3.53
2018-04-29T09:24:00.847Z,3.10
2018-04-29T09:26:29.875Z,3.90
2018-04-29T09:28:58.203Z,3.93
2018-04-29T09:31:26.419Z,3.80
2018-04-29T09:33:54.675Z,4.17
2018-04-29T09:36:22.847Z,3.70
2018-04-29T09:38:51.823Z,3.90
2018-04-29T09:41:20.062Z,4.17
2018-04-29T09:43:48.252Z,4.17
2018-04-29T09:46:16.439Z,4.20
2018-04-29T09:48:44.748Z,4.07
2018-04-29T09:51:12.903Z,4.27
2018-04-29T09:53:41.091Z,4.70
2018-04-29T09:56:10.164Z,4.23
2018-04-29T09:58:38.361Z,5.03
2018-04-29T10:01:12.972Z,4.53
2018-04-29T10:03:41.140Z,4.60
2018-04-29T10:06:09.346Z,4.63
2018-04-29T10:08:37.574Z,4.83
2018-04-29T10:11:05.772Z,5.33
2018-04-29T10:13:34.767Z,4.90
2018-04-29T10:16:03.147Z,4.50
2018-04-29T10:18:34.663Z,4.97
2018-04-29T10:21:02.851Z,5.73
2018-04-29T10:23:31.111Z,5.10
2018-04-29T10:25:59.319Z,5.23
2018-04-29T10:28:27.503Z,5.40
2018-04-29T10:30:56.555Z,4.87
2018-04-29T10:33:24.771Z,5.07
2018-04-29T10:35:53.735Z,4.90
2018-04-29T10:38:23.264Z,5.10
2018-04-29T10:40:52.220Z,5.27
2018-04-29T10:43:20.431Z,5.00
2018-04-29T10:45:49.475Z,5.17
2018-04-29T10:48:17.701Z,6.00
2018-04-29T10:50:46.650Z,6.20
2018-04-29T10:53:14.862Z,4.80
2018-04-29T10:55:43.052Z,5.03
2018-04-29T10:58:12.007Z,4.43
2018-04-29T11:00:41.547Z,5.00
2018-04-29T11:03:10.515Z,4.60
2018-04-29T11:05:38.717Z,4.57
2018-04-29T11:08:07.763Z,4.90
2018-04-29T11:10:35.968Z,4.20
2018-04-29T11:13:04.179Z,5.67
2018-04-29T11:15:32.400Z,4.50
2018-04-29T11:18:00.646Z,4.53
2018-04-29T11:20:29.279Z,4.43
2018-04-29T11:22:58.796Z,4.77
2018-04-29T11:25:27.757Z,4.93
2018-04-29T11:27:56.052Z,5.07
2018-04-29T11:30:25.079Z,4.50
2018-04-29T11:32:53.279Z,5.10
2018-04-29T11:35:21.564Z,4.20
2018-04-29T11:37:49.794Z,4.47
2018-04-29T11:40:18.780Z,4.30
2018-04-29T11:42:46.976Z,4.60
2018-04-29T11:45:16.579Z,4.57
2018-04-29T11:47:44.799Z,4.50
2018-04-29T11:50:13.074Z,4.37
2018-04-29T11:52:41.375Z,4.30
2018-04-29T11:55:09.591Z,4.10
2018-04-29T11:57:37.794Z,3.70
2018-04-29T12:00:06.216Z,4.10
2018-04-29T12:02:35.219Z,3.70
2018-04-29T12:05:03.395Z,3.67
2018-04-29T12:07:32.747Z,3.83
2018-04-29T12:10:00.946Z,4.07
2018-04-29T12:12:29.128Z,4.03
2018-04-29T12:14:57.448Z,3.40
2018-04-29T12:17:26.375Z,3.87
2018-04-29T12:19:54.571Z,4.13
2018-04-29T12:22:23.420Z,3.70
2018-04-29T12:24:51.638Z,3.90
2018-04-29T12:27:19.851Z,3.30
2018-04-29T12:29:48.137Z,3.37
2018-04-29T12:32:16.326Z,3.53
2018-04-29T12:34:44.523Z,3.70
2018-04-29T12:37:12.749Z,3.40
2018-04-29T12:39:40.946Z,3.60
2018-04-29T12:42:09.130Z,3.20
2018-04-29T12:44:37.375Z,3.40
2018-04-29T12:47:05.557Z,2.83
2018-04-29T12:49:33.751Z,3.57
2018-04-29T12:52:02.066Z,2.90
2018-04-29T12:54:30.239Z,2.90
2018-04-29T12:56:59.198Z,2.80
2018-04-29T12:59:27.392Z,2.80
2018-04-29T13:01:55.588Z,3.40
2018-04-29T13:04:24.563Z,2.90
2018-04-29T13:06:52.964Z,3.00
2018-04-29T13:09:21.960Z,3.17
2018-04-29T13:11:51.804Z,3.50
2018-04-29T13:14:20.135Z,3.00
2018-04-29T13:16:48.359Z,2.83
2018-04-29T13:19:16.553Z,3.40
2018-04-29T13:21:44.799Z,3.20
2018-04-29T13:24:13.003Z,3.00
2018-04-29T13:26:41.203Z,2.73
2018-04-29T13:29:09.466Z,2.50
2018-04-29T13:31:37.694Z,2.57
2018-04-29T13:34:05.885Z,2.57
2018-04-29T13:36:34.330Z,2.63
2018-04-29T13:39:03.296Z,2.70
2018-04-29T13:41:31.567Z,2.47
2018-04-29T13:44:00.683Z,2.40
2018-04-29T13:46:29.686Z,2.27
2018-04-29T13:48:58.639Z,2.63
2018-04-29T13:51:26.869Z,2.10
2018-04-29T13:53:55.062Z,1.70
2018-04-29T13:56:23.272Z,2.10
2018-04-29T13:58:51.640Z,2.03
2018-04-29T14:01:19.798Z,2.00
2018-04-29T14:03:48.007Z,1.70
2018-04-29T14:06:16.246Z,2.00
2018-04-29T14:08:44.444Z,2.33
2018-04-29T14:11:12.684Z,2.07
2018-04-29T14:13:40.892Z,2.17
2018-04-29T14:16:09.076Z,2.00
2018-04-29T14:18:37.292Z,1.63
2018-04-29T14:21:05.588Z,1.77
2018-04-29T14:23:33.775Z,1.87
2018-04-29T14:26:02.904Z,2.17
2018-04-29T14:28:31.127Z,1.70
2018-04-29T14:30:59.325Z,2.30
2018-04-29T14:33:27.518Z,2.07
2018-04-29T14:35:55.736Z,2.07
2018-04-29T14:38:24.689Z,2.07
2018-04-29T14:40:52.887Z,2.10
2018-04-29T14:43:21.949Z,2.47
2018-04-29T14:45:50.179Z,2.07
2018-04-29T14:48:18.470Z,2.13
2018-04-29T14:50:46.741Z,2.63
2018-04-29T14:53:14.936Z,2.70
2018-04-29T14:55:43.128Z,2.20
2018-04-29T14:58:11.395Z,2.47
2018-04-29T15:00:40.404Z,2.70
2018-04-29T15:03:08.616Z,2.73
2018-04-29T15:05:37.772Z,2.77
2018-04-29T15:08:06.928Z,2.83
2018-04-29T15:10:35.343Z,3.00
2018-04-29T15:13:04.331Z,3.00
2018-04-29T15:15:32.943Z,2.90
2018-04-29T15:18:01.139Z,2.70
2018-04-29T15:20:30.162Z,2.83
2018-04-29T15:22:58.391Z,3.10
2018-04-29T15:25:26.614Z,3.17
2018-04-29T15:27:54.875Z,2.70
2018-04-29T15:30:23.078Z,2.43
2018-04-29T15:32:51.263Z,2.73
2018-04-29T15:35:19.702Z,2.93
2018-04-29T15:37:47.895Z,3.17
2018-04-29T15:40:16.118Z,3.07
2018-04-29T15:42:44.336Z,3.33
2018-04-29T15:45:12.531Z,2.73
2018-04-29T15:47:40.730Z,2.90
2018-04-29T15:50:10.279Z,2.93
2018-04-29T15:52:38.467Z,3.27
2018-04-29T15:55:06.742Z,3.20
2018-04-29T15:57:35.027Z,3.40
2018-04-29T16:00:03.267Z,3.67
2018-04-29T16:02:32.323Z,3.00
2018-04-29T16:05:00.551Z,3.33
2018-04-29T16:07:28.743Z,3.23
2018-04-29T16:09:56.943Z,3.00
2018-04-29T16:12:25.207Z,2.70
2018-04-29T16:14:53.399Z,2.67
2018-04-29T16:17:21.591Z,3.07
2018-04-29T16:19:49.899Z,2.63
2018-04-29T16:22:20.931Z,3.37
2018-04-29T16:24:49.891Z,3.00
2018-04-29T16:27:18.242Z,2.97
2018-04-29T16:29:46.427Z,3.27
2018-04-29T16:32:14.671Z,3.00
2018-04-29T16:34:42.899Z,3.20
2018-04-29T16:37:11.158Z,2.40
2018-04-29T16:39:39.471Z,3.20
2018-04-29T16:42:08.491Z,3.20
2018-04-29T16:44:37.463Z,3.20
2018-04-29T16:47:06.450Z,3.07
2018-04-29T16:49:35.454Z,3.50
2018-04-29T16:52:04.523Z,3.10
2018-04-29T16:54:32.727Z,3.20
2018-04-29T16:57:01.773Z,3.17
2018-04-29T16:59:29.959Z,3.00
2018-04-29T17:01:58.155Z,3.40
2018-04-29T17:04:27.167Z,2.93
2018-04-29T17:06:56.686Z,2.97
2018-04-29T17:09:25.169Z,3.13
2018-04-29T17:11:53.459Z,2.90
2018-04-29T17:14:21.666Z,3.20
2018-04-29T17:16:49.989Z,3.27
2018-04-29T17:19:18.527Z,3.43
2018-04-29T17:21:46.714Z,3.23
2018-04-29T17:24:14.942Z,2.93
2018-04-29T17:26:43.142Z,3.50
2018-04-29T17:29:11.422Z,3.53
2018-04-29T17:31:40.363Z,3.17
2018-04-29T17:34:08.582Z,3.23
2018-04-29T17:36:36.784Z,3.00
2018-04-29T17:39:05.028Z,3.10
2018-04-29T17:41:33.319Z,3.50
2018-04-29T17:44:01.536Z,3.40
2018-04-29T17:46:30.483Z,3.50
2018-04-29T17:48:58.731Z,3.30
2018-04-29T17:51:26.923Z,3.40
2018-04-29T17:53:55.127Z,3.47
2018-04-29T17:56:23.340Z,3.57
2018-04-29T17:58:51.527Z,3.40
2018-04-29T18:01:19.899Z,3.63
2018-04-29T18:03:49.475Z,3.63
2018-04-29T18:06:18.440Z,3.57
2018-04-29T18:08:46.642Z,3.60
2018-04-29T18:11:15.641Z,3.60
2018-04-29T18:13:44.692Z,3.70
2018-04-29T18:16:13.300Z,4.03
2018-04-29T18:18:41.555Z,3.80
2018-04-29T18:21:09.762Z,3.80
2018-04-29T18:23:38.771Z,4.20
2018-04-29T18:26:07.134Z,4.23
2018-04-29T18:28:36.091Z,3.77
2018-04-29T18:31:04.359Z,4.07
2018-04-29T18:33:32.599Z,4.07
2018-04-29T18:36:00.815Z,4.10
2018-04-29T18:38:29.217Z,4.40
2018-04-29T18:40:57.611Z,4.13
2018-04-29T18:43:26.919Z,4.23
2018-04-29T18:45:56.052Z,4.17
2018-04-29T18:48:24.933Z,4.57
2018-04-29T18:50:53.192Z,4.27
2018-04-29T18:53:21.331Z,4.17
2018-04-29T18:55:49.611Z,4.33
2018-04-29T18:58:17.807Z,4.43
2018-04-29T19:00:46.779Z,4.10
2018-04-29T19:03:19.953Z,4.30
2018-04-29T19:05:48.158Z,4.57
2018-04-29T19:08:17.147Z,4.67
2018-04-29T19:10:45.791Z,4.40
2018-04-29T19:13:15.121Z,4.83
2018-04-29T19:15:44.220Z,4.77
2018-04-29T19:18:13.846Z,4.77
2018-04-29T19:20:42.984Z,5.10
2018-04-29T19:23:11.223Z,4.50
2018-04-29T19:25:40.231Z,4.70
2018-04-29T19:28:08.952Z,4.60
2018-04-29T19:30:37.931Z,4.87
2018-04-29T19:33:06.268Z,4.70
2018-04-29T19:35:35.232Z,4.90
2018-04-29T19:38:03.514Z,5.13
2018-04-29T19:40:31.830Z,4.90
2018-04-29T19:43:00.832Z,5.70
2018-04-29T19:45:29.018Z,5.23
2018-04-29T19:47:57.293Z,5.10
2018-04-29T19:50:25.566Z,5.20
2018-04-29T19:52:53.801Z,5.67
2018-04-29T19:55:22.107Z,5.63
2018-04-29T19:57:51.153Z,6.20
2018-04-29T20:00:19.342Z,5.80
2018-04-29T20:02:47.733Z,5.77
2018-04-29T20:05:16.696Z,5.70
2018-04-29T20:07:45.019Z,6.30
2018-04-29T20:10:13.568Z,6.30
2018-04-29T20:12:41.763Z,6.50
2018-04-29T20:15:10.023Z,6.40
2018-04-29T20:17:38.446Z,6.23
2018-04-29T20:20:07.658Z,6.50
2018-04-29T20:22:36.656Z,5.43
2018-04-29T20:25:04.899Z,6.00
2018-04-29T20:27:33.915Z,5.73
2018-04-29T20:30:02.380Z,6.43
2018-04-29T20:32:54.174Z,6.53
2018-04-29T20:35:22.379Z,6.27
2018-04-29T20:37:51.505Z,6.00
2018-04-29T20:40:20.565Z,6.20
2018-04-29T20:42:49.528Z,6.70
2018-04-29T20:45:17.731Z,6.70
2018-04-29T20:47:46.758Z,6.93
2018-04-29T20:50:15.688Z,6.97
2018-04-29T20:52:43.895Z,7.13
2018-04-29T20:55:12.989Z,6.63
2018-04-29T20:57:42.047Z,6.53
2018-04-29T21:00:10.370Z,7.60
2018-04-29T21:02:39.367Z,7.33
2018-04-29T21:05:07.597Z,7.57
2018-04-29T21:07:36.058Z,7.83
2018-04-29T21:10:04.280Z,8.40
2018-04-29T21:12:33.248Z,8.00
2018-04-29T21:15:01.522Z,8.13
2018-04-29T21:17:29.885Z,7.60
2018-04-29T21:19:58.058Z,7.77
2018-04-29T21:22:26.374Z,8.10
2018-04-29T21:24:54.752Z,7.70
2018-04-29T21:27:23.398Z,7.50
2018-04-29T21:29:51.635Z,7.73
2018-04-29T21:32:20.679Z,8.00
2018-04-29T21:34:50.151Z,7.97
2018-04-29T21:37:18.526Z,8.20
2018-04-29T21:39:46.945Z,7.20
2018-04-29T21:42:15.250Z,7.07
2018-04-29T21:44:43.463Z,8.17
2018-04-29T21:47:11.783Z,7.80
2018-04-29T21:49:39.985Z,7.77
2018-04-29T21:52:08.259Z,7.70
2018-04-29T21:54:36.480Z,7.90
2018-04-29T21:57:04.735Z,7.90
2018-04-29T21:59:33.751Z,7.87
2018-04-29T22:02:02.112Z,8.03
2018-04-29T22:04:31.072Z,7.47
2018-04-29T22:06:59.734Z,8.23
2018-04-29T22:09:27.963Z,8.07
2018-04-29T22:11:58.085Z,8.43
2018-04-29T22:14:27.139Z,8.10
2018-04-29T22:16:55.535Z,8.03
2018-04-29T22:19:23.750Z,7.03
2018-04-29T22:21:52.744Z,8.90
2018-04-29T22:24:21.067Z,8.00
2018-04-29T22:26:49.351Z,8.00
2018-04-29T22:29:17.553Z,7.83
2018-04-29T22:31:46.880Z,7.37
2018-04-29T22:34:15.312Z,7.83
2018-04-29T22:36:44.342Z,8.20
2018-04-29T22:39:13.487Z,8.63
2018-04-29T22:41:41.733Z,8.17
2018-04-29T22:44:09.985Z,8.33
2018-04-29T22:46:39.216Z,8.30
2018-04-29T22:49:07.479Z,7.40
2018-04-29T22:51:35.712Z,7.60
2018-04-29T22:54:03.949Z,7.43
2018-04-29T22:56:32.167Z,7.83
2018-04-29T22:59:00.375Z,8.50
2018-04-29T23:01:28.643Z,8.60
2018-04-29T23:03:56.896Z,8.87
2018-04-29T23:06:25.052Z,9.23
2018-04-29T23:08:53.329Z,8.57
2018-04-29T23:11:21.557Z,8.97
2018-04-29T23:13:49.947Z,9.00
2018-04-29T23:16:18.272Z,8.80
2018-04-29T23:18:47.251Z,9.27
2018-04-29T23:21:15.486Z,9.30
2018-04-29T23:23:43.683Z,9.00
2018-04-29T23:26:11.982Z,9.07
2018-04-29T23:28:40.303Z,8.47
2018-04-29T23:31:08.501Z,8.50
2018-04-29T23:33:36.805Z,8.87
2018-04-29T23:36:04.991Z,9.10
2018-04-29T23:38:33.310Z,9.07
2018-04-29T23:41:01.565Z,9.63
2018-04-29T23:43:29.768Z,8.47
2018-04-29T23:48:32.612Z,8.50
2018-04-29T23:51:00.836Z,9.00
2018-04-29T23:53:29.042Z,9.70
2018-04-29T23:55:57.299Z,9.27
2018-04-29T23:58:25.494Z,8.67
